createdAt,value
2022-12-14T00:01:07.386Z,-5.46
2022-12-14T00:02:09.633Z,-5.51
2022-12-14T00:03:13.204Z,-5.45
2022-12-14T00:04:15.614Z,-5.48
2022-12-14T00:05:19.808Z,-5.43
2022-12-14T00:06:27.769Z,-5.53
2022-12-14T00:07:30.139Z,-5.64
2022-12-14T00:08:36.765Z,-5.62
2022-12-14T00:09:42.061Z,-5.47
2022-12-14T00:10:44.693Z,-5.51
2022-12-14T00:11:46.817Z,-5.54
2022-12-14T00:12:48.973Z,-5.64
2022-12-14T00:13:57.028Z,-5.58
2022-12-14T00:14:59.920Z,-5.50
2022-12-14T00:16:12.074Z,-5.60
2022-12-14T00:17:14.304Z,-5.58
2022-12-14T00:18:20.855Z,-5.47
2022-12-14T00:19:24.593Z,-5.43
2022-12-14T00:20:27.569Z,-5.48
2022-12-14T00:21:29.981Z,-5.56
2022-12-14T00:22:32.090Z,-5.59
2022-12-14T00:23:38.960Z,-5.61
2022-12-14T00:24:41.937Z,-5.54
2022-12-14T00:25:44.344Z,-5.51
2022-12-14T00:26:51.394Z,-5.51
2022-12-14T00:27:53.591Z,-5.62
2022-12-14T00:28:56.099Z,-5.63
2022-12-14T00:29:58.214Z,-5.88
2022-12-14T00:31:00.459Z,-5.89
2022-12-14T00:32:02.632Z,-5.82
2022-12-14T00:33:04.919Z,-5.73
2022-12-14T00:34:07.082Z,-5.73
2022-12-14T00:35:10.769Z,-5.75
2022-12-14T00:36:14.159Z,-5.64
2022-12-14T00:37:16.497Z,-5.64
2022-12-14T00:38:18.689Z,-5.68
2022-12-14T00:39:20.871Z,-5.73
2022-12-14T00:40:23.230Z,-5.69
2022-12-14T00:41:25.368Z,-5.83
2022-12-14T00:42:27.912Z,-5.83
2022-12-14T00:43:30.371Z,-5.90
2022-12-14T00:44:32.708Z,-5.92
2022-12-14T00:45:34.847Z,-5.91
2022-12-14T00:46:37.069Z,-5.84
2022-12-14T00:47:40.932Z,-5.89
2022-12-14T00:48:43.254Z,-5.82
2022-12-14T00:49:45.592Z,-5.75
2022-12-14T00:50:52.796Z,-5.68
2022-12-14T00:51:55.068Z,-5.74
2022-12-14T00:52:57.678Z,-5.85
2022-12-14T00:53:59.786Z,-5.69
2022-12-14T00:55:02.189Z,-5.65
2022-12-14T00:56:06.496Z,-5.75
2022-12-14T00:57:09.050Z,-5.71
2022-12-14T00:58:14.316Z,-5.72
2022-12-14T00:59:21.711Z,-5.67
2022-12-14T01:00:26.547Z,-5.81
2022-12-14T01:01:30.596Z,-5.73
2022-12-14T01:02:32.979Z,-5.68
2022-12-14T01:03:35.760Z,-5.78
2022-12-14T01:04:38.081Z,-5.79
2022-12-14T01:05:40.697Z,-5.96
2022-12-14T01:06:51.224Z,-5.98
2022-12-14T01:07:53.516Z,-5.99
2022-12-14T01:08:55.669Z,-6.01
2022-12-14T01:09:58.000Z,-5.98
2022-12-14T01:11:03.580Z,-6.02
2022-12-14T01:12:06.081Z,-6.03
2022-12-14T01:13:11.191Z,-6.01
2022-12-14T01:14:15.509Z,-5.94
2022-12-14T01:15:18.123Z,-6.03
2022-12-14T01:16:20.375Z,-6.14
2022-12-14T01:17:22.739Z,-6.05
2022-12-14T01:18:24.863Z,-6.00
2022-12-14T01:19:27.431Z,-5.97
2022-12-14T01:20:29.790Z,-6.00
2022-12-14T01:21:32.149Z,-5.90
2022-12-14T01:22:34.309Z,-5.85
2022-12-14T01:23:37.382Z,-5.94
2022-12-14T01:24:39.541Z,-6.03
2022-12-14T01:25:41.705Z,-5.97
2022-12-14T01:26:43.848Z,-6.06
2022-12-14T01:27:46.223Z,-6.14
2022-12-14T01:28:52.669Z,-6.14
2022-12-14T01:29:54.873Z,-6.13
2022-12-14T01:30:57.067Z,-6.14
2022-12-14T01:31:59.202Z,-6.10
2022-12-14T01:33:01.338Z,-6.11
2022-12-14T01:34:04.335Z,-6.08
2022-12-14T01:35:06.857Z,-6.06
2022-12-14T01:36:12.390Z,-6.02
2022-12-14T01:37:14.740Z,-6.09
2022-12-14T01:38:16.868Z,-6.09
2022-12-14T01:39:18.982Z,-6.12
2022-12-14T01:40:21.320Z,-6.14
2022-12-14T01:41:40.323Z,-6.01
2022-12-14T01:42:42.633Z,-6.02
2022-12-14T01:43:50.124Z,-6.06
2022-12-14T01:44:55.944Z,-5.98
2022-12-14T01:45:58.913Z,-6.10
2022-12-14T01:47:00.957Z,-6.14
2022-12-14T01:48:03.897Z,-6.11
2022-12-14T01:49:19.665Z,-6.10
2022-12-14T01:50:31.066Z,-6.07
2022-12-14T01:51:35.213Z,-6.13
2022-12-14T01:52:42.827Z,-6.24
2022-12-14T01:53:46.929Z,-6.26
2022-12-14T01:54:54.961Z,-6.19
2022-12-14T01:55:57.736Z,-6.19
2022-12-14T01:57:00.399Z,-6.29
2022-12-14T01:58:26.836Z,-6.19
2022-12-14T01:59:35.209Z,-6.16
2022-12-14T02:00:38.205Z,-6.17
2022-12-14T02:01:41.565Z,-6.21
2022-12-14T02:03:02.381Z,-6.23
2022-12-14T02:04:07.080Z,-6.29
2022-12-14T02:05:11.034Z,-6.23
2022-12-14T02:06:34.068Z,-6.28
2022-12-14T02:07:37.586Z,-6.25
2022-12-14T02:08:43.394Z,-6.27
2022-12-14T02:09:48.090Z,-6.32
2022-12-14T02:10:53.983Z,-6.19
2022-12-14T02:12:08.761Z,-6.25
2022-12-14T02:13:20.269Z,-6.16
2022-12-14T02:14:22.681Z,-6.17
2022-12-14T02:15:25.374Z,-6.16
2022-12-14T02:16:27.920Z,-6.18
2022-12-14T02:17:30.474Z,-6.09
2022-12-14T02:18:34.584Z,-6.18
2022-12-14T02:19:38.358Z,-6.21
2022-12-14T02:21:17.856Z,-6.10
2022-12-14T02:22:57.863Z,-6.06
2022-12-14T02:24:12.201Z,-6.19
2022-12-14T02:25:26.606Z,-6.10
2022-12-14T02:26:39.051Z,-6.07
2022-12-14T02:27:47.155Z,-5.98
2022-12-14T02:29:08.133Z,-5.83
2022-12-14T02:30:22.330Z,-5.86
2022-12-14T02:32:13.086Z,-6.02
2022-12-14T02:33:32.780Z,-5.86
2022-12-14T02:35:16.831Z,-5.77
2022-12-14T02:36:42.855Z,-5.70
2022-12-14T02:38:09.939Z,-5.77
2022-12-14T02:39:28.454Z,-5.85
2022-12-14T02:40:59.118Z,-5.83
2022-12-14T02:42:12.229Z,-5.88
2022-12-14T02:43:22.619Z,-5.71
2022-12-14T02:44:50.108Z,-5.64
2022-12-14T02:46:23.645Z,-5.60
2022-12-14T02:47:54.458Z,-5.78
2022-12-14T02:49:11.243Z,-5.79
2022-12-14T02:50:25.610Z,-5.86
2022-12-14T02:52:01.443Z,-5.94
2022-12-14T02:53:09.314Z,-5.93
2022-12-14T02:54:20.633Z,-5.86
2022-12-14T02:55:41.907Z,-5.84
2022-12-14T02:56:52.936Z,-5.88
2022-12-14T02:58:01.952Z,-5.89
2022-12-14T02:59:08.375Z,-5.86
2022-12-14T03:00:11.639Z,-5.80
2022-12-14T03:01:16.589Z,-5.84
2022-12-14T03:02:19.391Z,-5.97
2022-12-14T03:03:22.737Z,-5.87
2022-12-14T03:04:24.970Z,-5.90
2022-12-14T03:05:27.303Z,-6.05
2022-12-14T03:06:30.473Z,-6.05
2022-12-14T03:07:39.580Z,-6.14
2022-12-14T03:08:44.361Z,-6.09
2022-12-14T03:09:46.695Z,-6.04
2022-12-14T03:11:02.225Z,-6.08
2022-12-14T03:12:12.337Z,-6.03
2022-12-14T03:13:36.353Z,-6.09
2022-12-14T03:14:44.605Z,-5.96
2022-12-14T03:15:53.919Z,-6.05
2022-12-14T03:17:03.615Z,-5.99
2022-12-14T03:18:09.354Z,-5.92
2022-12-14T03:19:35.602Z,-5.98
2022-12-14T03:20:39.883Z,-6.02
2022-12-14T03:21:47.955Z,-6.05
2022-12-14T03:23:06.661Z,-6.05
2022-12-14T03:24:14.124Z,-5.97
2022-12-14T03:25:21.625Z,-5.95
2022-12-14T03:26:50.313Z,-5.99
2022-12-14T03:28:28.880Z,-5.92
2022-12-14T03:29:40.464Z,-5.91
2022-12-14T03:31:06.000Z,-5.95
2022-12-14T03:32:14.121Z,-5.98
2022-12-14T03:33:20.346Z,-6.05
2022-12-14T03:34:29.038Z,-6.15
2022-12-14T03:36:13.659Z,-6.12
2022-12-14T03:37:22.924Z,-6.01
2022-12-14T03:38:39.600Z,-5.96
2022-12-14T03:39:43.527Z,-5.94
2022-12-14T03:40:58.405Z,-5.95
2022-12-14T03:42:24.664Z,-6.01
2022-12-14T03:43:49.704Z,-6.04
2022-12-14T03:45:04.063Z,-6.01
2022-12-14T03:46:18.474Z,-5.86
2022-12-14T03:47:26.633Z,-5.86
2022-12-14T03:48:40.234Z,-5.76
2022-12-14T03:49:57.946Z,-5.71
2022-12-14T03:51:10.149Z,-5.72
2022-12-14T03:52:29.053Z,-5.78
2022-12-14T03:53:40.516Z,-5.70
2022-12-14T03:54:58.974Z,-5.69
2022-12-14T03:56:09.470Z,-5.73
2022-12-14T03:57:14.961Z,-5.77
2022-12-14T03:58:36.513Z,-5.81
2022-12-14T03:59:59.401Z,-5.86
2022-12-14T04:01:25.832Z,-5.78
2022-12-14T04:02:45.722Z,-5.82
2022-12-14T04:03:56.535Z,-5.76
2022-12-14T04:05:06.469Z,-5.76
2022-12-14T04:06:24.162Z,-5.73
2022-12-14T04:07:50.218Z,-5.63
2022-12-14T04:09:22.432Z,-5.73
2022-12-14T04:10:57.576Z,-5.67
2022-12-14T04:12:36.071Z,-5.70
2022-12-14T04:14:19.904Z,-5.76
2022-12-14T04:15:45.427Z,-5.75
2022-12-14T04:17:10.620Z,-5.76
2022-12-14T04:18:37.244Z,-5.72
2022-12-14T04:19:55.595Z,-5.60
2022-12-14T04:21:20.269Z,-5.63
2022-12-14T04:22:26.746Z,-5.68
2022-12-14T04:23:52.771Z,-5.64
2022-12-14T04:25:20.532Z,-5.52
2022-12-14T04:26:29.714Z,-5.50
2022-12-14T04:27:40.097Z,-5.50
2022-12-14T04:29:04.955Z,-5.49
2022-12-14T04:30:09.863Z,-5.49
2022-12-14T04:31:18.746Z,-5.45
2022-12-14T04:32:33.150Z,-5.53
2022-12-14T04:33:48.951Z,-5.57
2022-12-14T04:34:57.350Z,-5.58
2022-12-14T04:36:02.720Z,-5.64
2022-12-14T04:37:11.229Z,-5.59
2022-12-14T04:38:22.105Z,-5.56
2022-12-14T04:39:59.082Z,-5.68
2022-12-14T04:41:06.685Z,-5.65
2022-12-14T04:42:10.683Z,-5.58
2022-12-14T04:43:17.992Z,-5.59
2022-12-14T04:44:27.085Z,-5.54
2022-12-14T04:45:34.698Z,-5.47
2022-12-14T04:46:40.952Z,-5.21
2022-12-14T04:47:52.341Z,-4.96
2022-12-14T04:49:03.065Z,-4.85
2022-12-14T04:50:10.422Z,-4.87
2022-12-14T04:51:35.474Z,-4.81
2022-12-14T04:52:48.530Z,-4.80
2022-12-14T04:53:55.826Z,-4.85
2022-12-14T04:55:18.386Z,-4.86
2022-12-14T04:56:30.322Z,-4.90
2022-12-14T04:57:49.081Z,-4.82
2022-12-14T04:58:51.481Z,-4.74
2022-12-14T04:59:54.578Z,-4.71
2022-12-14T05:01:12.076Z,-4.68
2022-12-14T05:02:48.523Z,-4.66
2022-12-14T05:04:12.495Z,-4.66
2022-12-14T05:05:35.856Z,-4.71
2022-12-14T05:06:47.483Z,-5.00
2022-12-14T05:07:54.323Z,-4.85
2022-12-14T05:09:05.537Z,-4.84
2022-12-14T05:10:34.087Z,-4.83
2022-12-14T05:12:16.066Z,-4.93
2022-12-14T05:13:30.562Z,-4.86
2022-12-14T05:14:42.012Z,-4.85
2022-12-14T05:15:49.132Z,-5.00
2022-12-14T05:16:51.453Z,-5.18
2022-12-14T05:17:54.405Z,-5.04
2022-12-14T05:18:56.746Z,-5.06
2022-12-14T05:19:58.850Z,-5.22
2022-12-14T05:21:01.212Z,-5.12
2022-12-14T05:22:08.146Z,-5.02
2022-12-14T05:23:10.357Z,-5.19
2022-12-14T05:24:13.005Z,-5.00
2022-12-14T05:25:15.316Z,-4.91
2022-12-14T05:26:17.742Z,-4.73
2022-12-14T05:27:19.867Z,-4.63
2022-12-14T05:28:22.196Z,-4.61
2022-12-14T05:29:24.374Z,-4.60
2022-12-14T05:30:26.866Z,-4.68
2022-12-14T05:31:29.144Z,-4.64
2022-12-14T05:32:31.766Z,-4.58
2022-12-14T05:33:33.909Z,-4.54
2022-12-14T05:34:36.237Z,-4.66
2022-12-14T05:35:38.369Z,-4.77
2022-12-14T05:36:40.497Z,-4.86
2022-12-14T05:37:43.056Z,-4.76
2022-12-14T05:38:45.360Z,-4.61
2022-12-14T05:39:48.082Z,-4.56
2022-12-14T05:40:50.211Z,-4.63
2022-12-14T05:41:53.396Z,-4.62
2022-12-14T05:43:15.829Z,-4.90
2022-12-14T05:44:18.201Z,-4.95
2022-12-14T05:45:20.521Z,-4.98
2022-12-14T05:46:22.740Z,-5.16
2022-12-14T05:47:25.636Z,-5.38
2022-12-14T05:48:27.947Z,-5.20
2022-12-14T05:49:30.378Z,-5.21
2022-12-14T05:50:32.945Z,-5.12
2022-12-14T05:51:35.366Z,-5.20
2022-12-14T05:52:37.548Z,-5.06
2022-12-14T05:53:40.278Z,-5.00
2022-12-14T05:54:42.447Z,-5.09
2022-12-14T05:55:49.149Z,-5.07
2022-12-14T05:56:52.966Z,-4.94
2022-12-14T05:57:55.680Z,-5.06
2022-12-14T05:58:58.040Z,-4.98
2022-12-14T06:00:00.394Z,-5.16
2022-12-14T06:01:08.308Z,-5.20
2022-12-14T06:02:12.132Z,-5.44
2022-12-14T06:03:14.543Z,-5.36
2022-12-14T06:04:18.899Z,-5.24
2022-12-14T06:05:21.673Z,-5.12
2022-12-14T06:06:23.805Z,-5.05
2022-12-14T06:07:27.953Z,-5.11
2022-12-14T06:08:35.617Z,-5.16
2022-12-14T06:09:37.773Z,-5.33
2022-12-14T06:10:40.119Z,-5.37
2022-12-14T06:11:43.046Z,-5.27
2022-12-14T06:12:45.359Z,-5.12
2022-12-14T06:13:48.685Z,-4.99
2022-12-14T06:14:51.635Z,-5.09
2022-12-14T06:15:54.016Z,-5.05
2022-12-14T06:16:56.200Z,-5.33
2022-12-14T06:17:58.698Z,-5.26
2022-12-14T06:19:03.678Z,-5.37
2022-12-14T06:20:06.288Z,-5.55
2022-12-14T06:21:08.725Z,-5.53
2022-12-14T06:22:10.914Z,-5.56
2022-12-14T06:23:13.554Z,-5.48
2022-12-14T06:24:15.708Z,-5.58
2022-12-14T06:25:17.891Z,-5.64
2022-12-14T06:26:20.095Z,-5.57
2022-12-14T06:27:22.408Z,-5.61
2022-12-14T06:28:24.776Z,-5.51
2022-12-14T06:29:27.542Z,-5.74
2022-12-14T06:30:29.934Z,-5.81
2022-12-14T06:31:33.584Z,-5.50
2022-12-14T06:32:35.763Z,-5.24
2022-12-14T06:33:38.293Z,-5.08
2022-12-14T06:34:42.458Z,-4.77
2022-12-14T06:35:46.388Z,-4.66
2022-12-14T06:36:48.543Z,-4.86
2022-12-14T06:37:50.860Z,-4.84
2022-12-14T06:38:54.863Z,-4.89
2022-12-14T06:39:57.071Z,-4.98
2022-12-14T06:40:59.424Z,-5.02
2022-12-14T06:42:01.573Z,-5.09
2022-12-14T06:43:04.192Z,-5.30
2022-12-14T06:44:12.713Z,-5.36
2022-12-14T06:45:15.019Z,-5.29
2022-12-14T06:46:20.124Z,-5.20
2022-12-14T06:47:22.352Z,-5.10
2022-12-14T06:48:24.741Z,-5.16
2022-12-14T06:49:27.394Z,-5.31
2022-12-14T06:50:29.557Z,-5.38
2022-12-14T06:51:32.450Z,-5.52
2022-12-14T06:52:34.728Z,-5.70
2022-12-14T06:53:37.005Z,-5.80
2022-12-14T06:54:39.524Z,-5.62
2022-12-14T06:55:41.719Z,-5.43
2022-12-14T06:56:45.565Z,-5.25
2022-12-14T06:57:50.505Z,-5.23
2022-12-14T06:58:54.613Z,-5.27
2022-12-14T06:59:56.746Z,-5.28
2022-12-14T07:01:10.382Z,-5.31
2022-12-14T07:02:12.723Z,-5.46
2022-12-14T07:03:15.251Z,-5.39
2022-12-14T07:04:18.769Z,-5.46
2022-12-14T07:05:21.354Z,-5.46
2022-12-14T07:06:25.364Z,-5.64
2022-12-14T07:07:27.497Z,-5.49
2022-12-14T07:08:31.711Z,-5.56
2022-12-14T07:09:33.867Z,-5.56
2022-12-14T07:10:35.988Z,-5.77
2022-12-14T07:11:38.620Z,-5.77
2022-12-14T07:12:40.852Z,-5.89
2022-12-14T07:13:43.619Z,-5.97
2022-12-14T07:14:45.759Z,-5.95
2022-12-14T07:15:52.549Z,-5.81
2022-12-14T07:16:54.776Z,-5.71
2022-12-14T07:17:56.904Z,-5.65
2022-12-14T07:19:00.458Z,-5.57
2022-12-14T07:20:04.663Z,-5.55
2022-12-14T07:21:12.798Z,-5.64
2022-12-14T07:22:15.522Z,-5.90
2022-12-14T07:23:17.695Z,-6.28
2022-12-14T07:24:20.105Z,-6.46
2022-12-14T07:25:22.319Z,-6.41
2022-12-14T07:26:27.571Z,-6.43
2022-12-14T07:27:30.021Z,-6.23
2022-12-14T07:28:32.940Z,-6.00
2022-12-14T07:29:35.216Z,-5.91
2022-12-14T07:30:37.805Z,-5.82
2022-12-14T07:31:40.279Z,-5.78
2022-12-14T07:32:42.941Z,-5.81
2022-12-14T07:33:45.616Z,-5.97
2022-12-14T07:34:48.109Z,-6.16
2022-12-14T07:35:50.783Z,-6.08
2022-12-14T07:36:53.830Z,-6.01
2022-12-14T07:37:56.207Z,-5.93
2022-12-14T07:38:58.369Z,-6.03
2022-12-14T07:40:00.539Z,-6.15
2022-12-14T07:41:09.873Z,-6.10
2022-12-14T07:42:12.945Z,-5.94
2022-12-14T07:43:22.297Z,-5.94
2022-12-14T07:44:24.429Z,-5.95
2022-12-14T07:45:27.090Z,-5.90
2022-12-14T07:46:33.059Z,-5.85
2022-12-14T07:47:35.700Z,-5.79
2022-12-14T07:48:38.545Z,-5.81
2022-12-14T07:49:41.928Z,-5.97
2022-12-14T07:50:44.104Z,-6.05
2022-12-14T07:51:46.579Z,-6.04
2022-12-14T07:52:48.768Z,-6.21
2022-12-14T07:53:51.987Z,-6.04
2022-12-14T07:54:54.319Z,-5.93
2022-12-14T07:56:00.726Z,-6.17
2022-12-14T07:57:02.942Z,-6.06
2022-12-14T07:58:05.298Z,-6.01
2022-12-14T07:59:11.315Z,-6.07
2022-12-14T08:00:13.900Z,-6.22
2022-12-14T08:01:19.337Z,-6.08
2022-12-14T08:02:21.809Z,-6.06
2022-12-14T08:03:24.009Z,-5.88
2022-12-14T08:04:26.195Z,-6.01
2022-12-14T08:05:28.708Z,-5.93
2022-12-14T08:06:31.783Z,-6.07
2022-12-14T08:07:34.152Z,-5.97
2022-12-14T08:08:36.695Z,-5.90
2022-12-14T08:09:38.893Z,-5.75
2022-12-14T08:10:41.468Z,-5.75
2022-12-14T08:11:43.881Z,-5.69
2022-12-14T08:12:49.915Z,-5.62
2022-12-14T08:14:03.552Z,-5.67
2022-12-14T08:15:06.410Z,-5.72
2022-12-14T08:16:14.112Z,-5.86
2022-12-14T08:17:16.504Z,-5.85
2022-12-14T08:18:18.678Z,-5.75
2022-12-14T08:19:21.034Z,-5.93
2022-12-14T08:20:23.762Z,-5.95
2022-12-14T08:21:26.944Z,-5.84
2022-12-14T08:22:29.117Z,-5.89
2022-12-14T08:23:32.209Z,-5.78
2022-12-14T08:24:34.875Z,-5.88
2022-12-14T08:25:37.201Z,-5.96
2022-12-14T08:26:39.997Z,-5.93
2022-12-14T08:27:42.343Z,-5.87
2022-12-14T08:28:45.109Z,-5.89
2022-12-14T08:29:49.723Z,-5.97
2022-12-14T08:30:54.888Z,-6.15
2022-12-14T08:31:57.241Z,-6.11
2022-12-14T08:33:00.117Z,-6.20
2022-12-14T08:34:02.792Z,-6.08
2022-12-14T08:35:05.342Z,-6.09
2022-12-14T08:36:10.487Z,-5.83
2022-12-14T08:37:12.648Z,-5.82
2022-12-14T08:38:15.458Z,-5.70
2022-12-14T08:39:17.866Z,-5.91
2022-12-14T08:40:20.023Z,-5.71
2022-12-14T08:41:22.953Z,-5.75
2022-12-14T08:42:28.486Z,-5.77
2022-12-14T08:43:31.437Z,-5.68
2022-12-14T08:44:34.191Z,-5.50
2022-12-14T08:45:36.626Z,-5.65
2022-12-14T08:46:39.273Z,-5.44
2022-12-14T08:47:41.641Z,-5.44
2022-12-14T08:48:43.817Z,-5.53
2022-12-14T08:49:46.358Z,-5.54
2022-12-14T08:50:49.885Z,-5.54
2022-12-14T08:51:52.350Z,-5.37
2022-12-14T08:52:55.348Z,-5.39
2022-12-14T08:53:58.387Z,-5.37
2022-12-14T08:55:00.830Z,-5.22
2022-12-14T08:56:08.321Z,-5.28
2022-12-14T08:57:12.840Z,-5.10
2022-12-14T08:58:15.172Z,-5.11
2022-12-14T08:59:37.026Z,-5.36
2022-12-14T09:00:39.787Z,-5.37
2022-12-14T09:01:42.261Z,-5.37
2022-12-14T09:02:44.792Z,-5.52
2022-12-14T09:03:51.903Z,-5.47
2022-12-14T09:04:57.748Z,-5.36
2022-12-14T09:06:09.926Z,-5.13
2022-12-14T09:07:12.326Z,-5.10
2022-12-14T09:08:14.490Z,-5.01
2022-12-14T09:09:17.012Z,-4.95
2022-12-14T09:10:19.241Z,-4.95
2022-12-14T09:11:22.453Z,-4.81
2022-12-14T09:12:27.964Z,-4.74
2022-12-14T09:13:30.875Z,-4.92
2022-12-14T09:14:34.942Z,-4.86
2022-12-14T09:15:39.375Z,-4.66
2022-12-14T09:16:41.815Z,-4.70
2022-12-14T09:17:44.146Z,-4.50
2022-12-14T09:18:47.777Z,-4.45
2022-12-14T09:19:50.149Z,-4.40
2022-12-14T09:20:54.429Z,-4.27
2022-12-14T09:21:57.034Z,-4.42
2022-12-14T09:22:59.328Z,-4.42
2022-12-14T09:24:01.669Z,-4.74
2022-12-14T09:25:04.668Z,-4.81
2022-12-14T09:26:10.659Z,-4.92
2022-12-14T09:27:12.815Z,-4.94
2022-12-14T09:28:15.008Z,-5.12
2022-12-14T09:29:19.025Z,-5.38
2022-12-14T09:30:26.349Z,-5.51
2022-12-14T09:31:29.257Z,-5.57
2022-12-14T09:32:31.936Z,-5.45
2022-12-14T09:33:34.885Z,-5.56
2022-12-14T09:34:37.122Z,-5.35
2022-12-14T09:35:39.419Z,-5.66
2022-12-14T09:36:42.327Z,-5.58
2022-12-14T09:37:44.584Z,-5.52
2022-12-14T09:38:51.211Z,-5.65
2022-12-14T09:39:54.374Z,-5.46
2022-12-14T09:40:59.286Z,-5.27
2022-12-14T09:42:39.032Z,-4.99
2022-12-14T09:43:43.713Z,-4.74
2022-12-14T09:44:56.920Z,-4.66
2022-12-14T09:46:13.766Z,-4.62
2022-12-14T09:47:24.823Z,-4.63
2022-12-14T09:48:27.709Z,-4.86
2022-12-14T09:49:33.896Z,-5.08
2022-12-14T09:50:38.163Z,-4.97
2022-12-14T09:51:40.605Z,-4.68
2022-12-14T09:52:51.550Z,-4.58
2022-12-14T09:54:03.016Z,-4.44
2022-12-14T09:55:20.422Z,-4.56
2022-12-14T09:56:22.623Z,-4.66
2022-12-14T09:57:39.365Z,-4.74
2022-12-14T09:58:57.131Z,-4.71
2022-12-14T09:59:59.641Z,-4.59
2022-12-14T10:01:08.871Z,-4.35
2022-12-14T10:02:36.272Z,-4.58
2022-12-14T10:04:04.514Z,-4.36
2022-12-14T10:05:31.968Z,-4.27
2022-12-14T10:06:37.144Z,-4.19
2022-12-14T10:07:51.872Z,-4.29
2022-12-14T10:09:17.400Z,-4.30
2022-12-14T10:10:23.964Z,-4.16
2022-12-14T10:12:04.501Z,-4.40
2022-12-14T10:13:25.281Z,-4.67
2022-12-14T10:14:50.528Z,-4.53
2022-12-14T10:16:22.032Z,-4.32
2022-12-14T10:17:33.027Z,-4.47
2022-12-14T10:19:04.024Z,-4.46
2022-12-14T10:20:21.969Z,-4.60
2022-12-14T10:21:28.191Z,-4.53
2022-12-14T10:22:42.396Z,-4.42
2022-12-14T10:24:00.968Z,-4.28
2022-12-14T10:25:10.834Z,-4.26
2022-12-14T10:26:18.925Z,-4.32
2022-12-14T10:27:24.589Z,-4.23
2022-12-14T10:28:38.716Z,-4.33
2022-12-14T10:29:47.656Z,-4.51
2022-12-14T10:30:54.987Z,-4.69
2022-12-14T10:32:12.120Z,-4.79
2022-12-14T10:33:32.595Z,-4.75
2022-12-14T10:34:35.473Z,-4.72
2022-12-14T10:36:17.629Z,-4.81
2022-12-14T10:37:33.625Z,-4.88
2022-12-14T10:38:41.468Z,-4.78
2022-12-14T10:39:53.829Z,-4.74
2022-12-14T10:41:11.570Z,-4.54
2022-12-14T10:42:43.072Z,-4.38
2022-12-14T10:44:17.471Z,-4.12
2022-12-14T10:45:43.929Z,-4.01
2022-12-14T10:46:59.368Z,-3.78
2022-12-14T10:48:11.490Z,-3.62
2022-12-14T10:49:37.794Z,-3.78
2022-12-14T10:51:05.205Z,-3.98
2022-12-14T10:52:19.895Z,-4.26
2022-12-14T10:53:33.478Z,-4.08
2022-12-14T10:54:45.249Z,-4.09
2022-12-14T10:55:48.562Z,-4.10
2022-12-14T10:56:51.383Z,-4.03
2022-12-14T10:57:53.638Z,-3.93
2022-12-14T10:59:26.675Z,-3.75
2022-12-14T11:00:29.231Z,-3.78
2022-12-14T11:01:31.692Z,-3.73
2022-12-14T11:02:38.546Z,-3.43
2022-12-14T11:03:43.868Z,-3.58
2022-12-14T11:04:57.521Z,-3.53
2022-12-14T11:06:12.815Z,-3.37
2022-12-14T11:07:17.510Z,-3.18
2022-12-14T11:08:43.803Z,-2.97
2022-12-14T11:09:50.887Z,-3.06
2022-12-14T11:11:25.815Z,-2.85
2022-12-14T11:12:28.637Z,-3.06
2022-12-14T11:13:30.882Z,-3.20
2022-12-14T11:14:34.022Z,-3.03
2022-12-14T11:15:40.225Z,-2.88
2022-12-14T11:16:42.710Z,-2.89
2022-12-14T11:17:45.189Z,-3.21
2022-12-14T11:18:58.433Z,-3.06
2022-12-14T11:20:09.920Z,-2.85
2022-12-14T11:21:15.412Z,-3.10
2022-12-14T11:22:22.324Z,-3.38
2022-12-14T11:23:27.889Z,-3.51
2022-12-14T11:24:30.078Z,-3.36
2022-12-14T11:25:40.471Z,-3.42
2022-12-14T11:26:43.664Z,-3.46
2022-12-14T11:27:45.956Z,-3.26
2022-12-14T11:28:58.155Z,-3.25
2022-12-14T11:30:00.550Z,-3.37
2022-12-14T11:31:13.248Z,-3.53
2022-12-14T11:32:20.189Z,-3.41
2022-12-14T11:33:22.656Z,-3.28
2022-12-14T11:34:57.491Z,-3.45
2022-12-14T11:36:00.028Z,-3.69
2022-12-14T11:37:23.236Z,-3.65
2022-12-14T11:38:28.023Z,-3.45
2022-12-14T11:39:30.572Z,-3.44
2022-12-14T11:40:37.125Z,-3.37
2022-12-14T11:41:40.937Z,-3.19
2022-12-14T11:42:49.175Z,-3.05
2022-12-14T11:44:14.150Z,-3.07
2022-12-14T11:45:19.256Z,-3.23
2022-12-14T11:46:21.473Z,-3.22
2022-12-14T11:47:26.643Z,-2.99
2022-12-14T11:48:29.826Z,-3.04
2022-12-14T11:49:38.331Z,-2.81
2022-12-14T11:50:44.603Z,-2.88
2022-12-14T11:51:58.626Z,-2.63
2022-12-14T11:53:12.010Z,-2.36
2022-12-14T11:54:15.744Z,-2.45
2022-12-14T11:55:26.750Z,-2.48
2022-12-14T11:56:29.630Z,-2.32
2022-12-14T11:57:49.098Z,-2.32
2022-12-14T11:58:54.661Z,-2.69
2022-12-14T11:59:58.755Z,-2.74
2022-12-14T12:01:14.968Z,-2.82
2022-12-14T12:02:28.526Z,-2.57
2022-12-14T12:03:42.156Z,-2.50
2022-12-14T12:05:09.303Z,-2.39
2022-12-14T12:06:14.646Z,-2.61
2022-12-14T12:07:32.897Z,-2.46
2022-12-14T12:08:38.161Z,-2.29
2022-12-14T12:09:41.739Z,-2.12
2022-12-14T12:10:50.301Z,-2.08
2022-12-14T12:11:53.149Z,-2.01
2022-12-14T12:12:58.001Z,-1.91
2022-12-14T12:14:30.219Z,-2.14
2022-12-14T12:15:38.205Z,-2.33
2022-12-14T12:16:43.965Z,-2.31
2022-12-14T12:17:51.197Z,-2.34
2022-12-14T12:19:12.511Z,-2.37
2022-12-14T12:20:24.578Z,-2.28
2022-12-14T12:21:29.073Z,-2.04
2022-12-14T12:22:32.027Z,-1.84
2022-12-14T12:23:55.236Z,-2.11
2022-12-14T12:26:39.261Z,-2.48
2022-12-14T12:27:41.859Z,-2.20
2022-12-14T12:28:53.317Z,-2.16
2022-12-14T12:30:16.078Z,-2.38
2022-12-14T12:31:29.420Z,-2.47
2022-12-14T12:32:49.915Z,-2.52
2022-12-14T12:34:00.692Z,-2.59
2022-12-14T12:35:14.821Z,-2.66
2022-12-14T12:36:23.995Z,-2.45
2022-12-14T12:37:32.829Z,-2.09
2022-12-14T12:38:50.168Z,-1.92
2022-12-14T12:39:59.183Z,-1.94
2022-12-14T12:41:04.785Z,-1.81
2022-12-14T12:42:25.103Z,-1.66
2022-12-14T12:43:54.552Z,-2.04
2022-12-14T12:45:24.965Z,-1.96
2022-12-14T12:46:53.573Z,-1.83
2022-12-14T12:48:14.305Z,-1.56
2022-12-14T12:49:16.859Z,-1.50
2022-12-14T12:50:29.443Z,-1.42
2022-12-14T12:51:46.956Z,-1.42
2022-12-14T12:53:02.624Z,-1.55
2022-12-14T12:54:12.022Z,-1.90
2022-12-14T12:55:21.297Z,-2.22
2022-12-14T12:56:34.013Z,-2.33
2022-12-14T12:57:42.957Z,-2.34
2022-12-14T12:58:52.614Z,-2.45
2022-12-14T12:59:57.861Z,-2.53
2022-12-14T13:01:04.125Z,-2.66
2022-12-14T13:02:22.029Z,-2.80
2022-12-14T13:03:29.370Z,-2.80
2022-12-14T13:04:36.699Z,-2.71
2022-12-14T13:05:46.843Z,-2.41
2022-12-14T13:07:12.616Z,-2.50
2022-12-14T13:08:22.736Z,-2.57
2022-12-14T13:09:46.153Z,-2.41
2022-12-14T13:12:36.578Z,-2.32
2022-12-14T13:13:45.261Z,-2.31
2022-12-14T13:14:49.926Z,-2.38
2022-12-14T13:16:03.501Z,-2.99
2022-12-14T13:17:14.620Z,-2.84
2022-12-14T13:18:49.217Z,-2.64
2022-12-14T13:19:54.086Z,-2.61
2022-12-14T13:20:57.656Z,-2.50
2022-12-14T13:22:05.848Z,-2.27
2022-12-14T13:23:36.461Z,-2.20
2022-12-14T13:24:34.852Z,-2.15
2022-12-14T13:26:23.459Z,-2.44
2022-12-14T13:28:05.994Z,-2.50
2022-12-14T13:29:34.569Z,-2.47
2022-12-14T13:30:52.185Z,-2.52
2022-12-14T13:32:26.268Z,-2.61
2022-12-14T13:33:51.110Z,-2.85
2022-12-14T13:35:23.058Z,-2.81
2022-12-14T13:36:34.434Z,-2.68
2022-12-14T13:38:21.147Z,-2.54
2022-12-14T13:39:38.477Z,-2.29
2022-12-14T13:41:00.075Z,-2.42
2022-12-14T13:42:28.432Z,-2.48
2022-12-14T13:44:15.962Z,-2.79
2022-12-14T13:45:22.584Z,-2.77
2022-12-14T13:46:29.574Z,-2.68
2022-12-14T13:47:41.665Z,-2.76
2022-12-14T13:48:50.216Z,-2.83
2022-12-14T13:51:36.865Z,-2.49
2022-12-14T13:52:43.525Z,-2.95
2022-12-14T13:53:50.422Z,-3.25
2022-12-14T13:54:52.878Z,-3.36
2022-12-14T13:55:57.480Z,-3.23
2022-12-14T13:57:13.457Z,-3.36
2022-12-14T13:58:24.686Z,-3.20
2022-12-14T13:59:33.352Z,-3.64
2022-12-14T14:01:00.390Z,-3.61
2022-12-14T14:02:05.272Z,-3.42
2022-12-14T14:03:08.738Z,-3.51
2022-12-14T14:04:11.148Z,-3.33
2022-12-14T14:05:18.763Z,-3.20
2022-12-14T14:06:23.743Z,-3.00
2022-12-14T14:07:25.889Z,-3.04
2022-12-14T14:08:41.105Z,-3.17
2022-12-14T14:09:44.276Z,-3.23
2022-12-14T14:10:46.467Z,-3.14
2022-12-14T14:12:31.387Z,-3.47
2022-12-14T14:13:33.683Z,-3.42
2022-12-14T14:14:55.217Z,-3.44
2022-12-14T14:17:35.414Z,-3.55
2022-12-14T14:18:48.980Z,-3.71
2022-12-14T14:19:54.715Z,-3.81
2022-12-14T14:21:12.177Z,-3.62
2022-12-14T14:22:23.271Z,-3.67
2022-12-14T14:23:31.591Z,-3.52
2022-12-14T14:24:59.364Z,-3.35
2022-12-14T14:26:19.126Z,-3.35
2022-12-14T14:27:29.067Z,-3.51
2022-12-14T14:28:31.840Z,-3.25
2022-12-14T14:29:35.669Z,-3.27
2022-12-14T14:30:42.343Z,-3.36
2022-12-14T14:31:56.965Z,-3.57
2022-12-14T14:33:35.778Z,-3.35
2022-12-14T14:34:42.581Z,-3.36
2022-12-14T14:35:45.231Z,-3.48
2022-12-14T14:36:52.836Z,-3.56
2022-12-14T14:38:00.080Z,-3.68
2022-12-14T14:39:24.397Z,-3.73
2022-12-14T14:41:06.475Z,-3.56
2022-12-14T14:41:55.970Z,-3.73
2022-12-14T14:43:04.119Z,-3.47
2022-12-14T14:44:18.473Z,-3.32
2022-12-14T14:45:36.412Z,-3.14
2022-12-14T14:46:42.781Z,-3.14
2022-12-14T14:47:55.836Z,-3.12
2022-12-14T14:48:58.268Z,-3.56
2022-12-14T14:50:15.637Z,-3.65
2022-12-14T14:51:20.516Z,-3.65
2022-12-14T14:52:43.046Z,-3.56
2022-12-14T14:53:45.670Z,-3.55
2022-12-14T14:56:39.907Z,-3.37
2022-12-14T14:57:59.472Z,-3.77
2022-12-14T14:59:19.941Z,-3.90